Time;durP1;ratioP1;P1;durP2;ratioP2;P2;SDS_P1;SDS_P2;PMS_P1;PMS_P2;Temp;Humidity;BMP_temperature;BMP_pressure;BME280_temperature;BME280_humidity;BME280_pressure;Samples;Min_cycle;Max_cycle;Signal;HPM_P1;HPM_P2
2021/04/03 00:01:38;;;;;;;17.80;6.90;;;7.40;64.80;;;6.47;54.66;98875.25;5001182;28;20425;-84
2021/04/03 00:04:05;;;;;;;17.55;7.18;;;7.50;64.60;;;6.57;54.40;98873.13;4999167;28;20484;-84
2021/04/03 00:06:31;;;;;;;17.40;6.88;;;7.60;64.20;;;6.59;54.55;98869.31;4999583;28;20418;-84
2021/04/03 00:08:57;;;;;;;17.00;6.90;;;7.50;64.40;;;6.71;53.79;98871.44;4997782;28;20721;-85
2021/04/03 00:11:23;;;;;;;12.32;6.47;;;7.70;63.50;;;6.70;53.49;98872.44;4998241;28;20432;-85
2021/04/03 00:13:49;;;;;;;16.13;7.65;;;7.70;63.00;;;6.74;53.29;98874.50;4997871;28;20685;-85
2021/04/03 00:16:16;;;;;;;15.45;6.65;;;7.80;62.70;;;6.75;53.26;98876.16;4979987;28;20435;-86
2021/04/03 00:18:42;;;;;;;13.60;6.93;;;7.80;62.70;;;6.67;53.59;98876.28;4996799;28;20657;-85
2021/04/03 00:21:09;;;;;;;14.35;6.72;;;7.70;62.90;;;6.62;53.70;98870.75;4979551;28;20434;-85
2021/04/03 00:23:35;;;;;;;10.38;6.13;;;7.70;63.10;;;6.08;55.41;98884.41;4980237;28;20571;-85
2021/04/03 00:26:01;;;;;;;20.77;7.78;;;7.30;64.80;;;5.66;55.97;98879.00;4996228;28;20488;-84
2021/04/03 00:28:27;;;;;;;15.30;7.57;;;6.90;65.60;;;5.60;56.45;98875.28;4996579;28;20871;-84
2021/04/03 00:30:53;;;;;;;13.60;7.45;;;6.70;66.40;;;5.86;55.56;98879.25;4996923;28;20426;-84
2021/04/03 00:33:20;;;;;;;15.50;7.53;;;6.90;65.90;;;6.10;54.60;98877.13;4998078;28;20415;-84
2021/04/03 00:35:46;;;;;;;16.85;7.72;;;7.10;64.60;;;5.98;54.40;98869.91;4997529;28;20511;-84
2021/04/03 00:38:13;;;;;;;16.67;7.43;;;7.20;63.70;;;6.03;53.88;98872.78;5003754;28;20421;-84
2021/04/03 00:40:43;;;;;;;13.73;7.10;;;7.20;63.20;;;6.17;53.11;98869.28;5001521;28;20470;-85
2021/04/03 00:43:12;;;;;;;12.48;6.97;;;7.20;62.50;;;6.31;52.73;98865.81;4998187;28;20727;-83
2021/04/03 00:45:39;;;;;;;20.77;6.35;;;7.30;62.10;;;6.04;51.53;98863.91;4997485;28;20454;-84
2021/04/03 00:48:06;;;;;;;13.35;6.40;;;7.30;60.10;;;5.67;52.36;98876.19;4994641;28;20407;-83
2021/04/03 00:50:37;;;;;;;15.50;6.95;;;6.90;61.10;;;5.57;53.31;98867.75;4995487;28;20468;-83
2021/04/03 00:53:06;;;;;;;16.30;7.53;;;6.60;62.60;;;5.83;52.38;98872.53;4979515;28;20422;-82
2021/04/03 00:55:33;;;;;;;15.23;7.07;;;6.90;61.90;;;6.06;51.64;98867.16;4978885;28;20422;-83
2021/04/03 00:57:59;;;;;;;15.55;7.20;;;7.00;61.10;;;5.69;52.54;98874.19;4996868;28;20410;-83
2021/04/03 01:00:26;;;;;;;14.98;7.22;;;6.90;60.80;;;5.59;52.94;98865.78;4995921;28;20442;-83
2021/04/03 01:02:52;;;;;;;17.73;7.40;;;6.70;62.00;;;5.32;53.36;98869.06;5000198;28;20491;-82
2021/04/03 01:05:22;;;;;;;15.35;7.28;;;6.50;62.50;;;5.42;53.24;98874.81;4997230;28;20784;-84
2021/04/03 01:07:49;;;;;;;18.13;7.40;;;6.50;62.80;;;5.63;52.48;98871.50;4999289;28;20424;-84
2021/04/03 01:10:19;;;;;;;18.55;7.15;;;6.70;61.80;;;5.44;53.03;98881.53;4999628;28;20423;-84
2021/04/03 01:13:02;;;;;;;19.40;8.48;;;6.50;62.20;;;5.34;53.26;98870.47;4999081;28;20419;-83
2021/04/03 01:15:41;;;;;;;16.55;7.47;;;6.50;62.60;;;5.38;53.43;98877.03;4997104;28;20442;-84
2021/04/03 01:18:13;;;;;;;14.37;7.07;;;6.50;62.40;;;5.33;53.32;98868.88;4994949;28;20840;-82
2021/04/03 01:21:01;;;;;;;14.85;8.02;;;6.40;63.60;;;5.31;53.54;98872.66;4996952;28;20533;-81
2021/04/03 01:24:17;;;;;;;15.07;6.90;;;6.40;63.00;;;5.44;52.64;98864.97;5000918;28;20407;-83
2021/04/03 01:27:16;;;;;;;14.85;7.90;;;6.50;62.10;;;5.52;52.70;98864.06;4994515;28;20820;-83
2021/04/03 01:29:53;;;;;;;16.60;7.25;;;6.60;61.90;;;5.39;53.09;98855.03;4995920;28;20718;-85
2021/04/03 01:32:27;;;;;;;12.55;7.38;;;6.50;62.00;;;5.25;53.49;98855.03;4995208;28;20843;-83
2021/04/03 01:34:54;;;;;;;16.13;6.95;;;6.40;62.30;;;5.55;52.55;98853.19;4996224;28;20407;-82
2021/04/03 01:37:22;;;;;;;14.52;6.65;;;6.60;62.10;;;5.38;53.17;98848.13;4978657;28;20441;-83
2021/04/03 01:39:52;;;;;;;13.50;6.53;;;6.50;62.20;;;5.16;53.66;98846.41;4980765;28;20422;-82
2021/04/03 01:42:23;;;;;;;12.00;7.00;;;6.40;62.50;;;5.23;53.14;98851.75;4998426;28;20418;-83
2021/04/03 01:44:52;;;;;;;18.73;7.18;;;6.40;62.40;;;5.11;53.97;98847.97;4996501;28;20487;-84
2021/04/03 01:47:22;;;;;;;16.63;7.40;;;6.30;62.90;;;5.16;53.96;98859.53;4996818;28;20689;-85
2021/04/03 01:49:51;;;;;;;13.73;7.18;;;6.30;63.50;;;5.37;53.07;98850.94;4996566;28;20431;-85
2021/04/03 01:52:21;;;;;;;12.85;6.93;;;6.40;62.80;;;5.18;54.05;98852.31;4995135;28;20688;-83
2021/04/03 01:54:48;;;;;;;14.33;7.53;;;6.30;62.90;;;5.29;53.61;98846.59;4977793;28;20508;-85
2021/04/03 01:57:15;;;;;;;16.42;7.40;;;6.40;62.90;;;5.05;54.16;98855.53;4995184;28;20430;-85
2021/04/03 01:59:44;;;;;;;12.95;7.40;;;6.20;63.50;;;5.03;54.84;98854.09;4996120;28;20431;-83
2021/04/03 02:02:11;;;;;;;13.10;7.00;;;6.10;64.20;;;4.89;55.28;98845.19;4997642;28;20414;-83
2021/04/03 02:04:41;;;;;;;14.25;7.47;;;6.00;64.90;;;4.73;56.02;98848.00;4994475;28;20455;-84
2021/04/03 02:07:10;;;;;;;15.77;8.35;;;5.90;65.70;;;4.72;56.24;98846.38;4995152;28;20413;-84
2021/04/03 02:09:36;;;;;;;18.17;8.30;;;5.80;66.30;;;4.69;56.69;98841.47;4997742;28;20415;-84
2021/04/03 02:12:05;;;;;;;13.50;7.57;;;5.80;66.70;;;4.83;56.35;98838.03;4994939;28;20906;-84
2021/04/03 02:14:32;;;;;;;12.75;7.57;;;6.00;66.10;;;4.71;56.49;98841.28;4993654;28;20764;-83
2021/04/03 02:16:59;;;;;;;16.97;7.90;;;5.80;66.30;;;4.71;56.63;98839.50;4993002;28;20423;-84
2021/04/03 02:19:27;;;;;;;18.15;8.68;;;5.80;66.70;;;4.83;56.31;98837.22;4994653;28;20892;-85
2021/04/03 02:21:54;;;;;;;18.27;8.00;;;5.90;66.40;;;4.83;56.49;98835.44;4994335;28;20712;-84
2021/04/03 02:24:20;;;;;;;19.95;8.00;;;5.90;66.50;;;4.95;56.22;98833.19;4994636;28;20720;-82
2021/04/03 02:26:47;;;;;;;17.65;7.93;;;6.10;66.00;;;4.84;56.24;98842.31;4994399;28;20414;-83
2021/04/03 02:29:13;;;;;;;16.67;7.60;;;6.00;65.90;;;4.75;56.83;98835.50;4994599;28;20446;-82
2021/04/03 02:31:39;;;;;;;17.02;8.35;;;5.90;66.60;;;4.85;56.21;98836.06;4993932;28;20430;-81
2021/04/03 02:34:05;;;;;;;16.67;7.85;;;5.90;66.30;;;4.80;56.29;98832.38;4994657;28;20427;-83
2021/04/03 02:36:32;;;;;;;17.42;8.15;;;6.00;65.90;;;4.79;56.43;98831.53;4994318;28;20491;-83
2021/04/03 02:39:00;;;;;;;16.10;7.75;;;5.90;66.50;;;4.90;55.64;98832.91;4993928;28;20429;-83
2021/04/03 02:41:37;;;;;;;14.98;7.20;;;6.00;65.70;;;5.10;55.37;98835.84;4993901;28;20418;-83
2021/04/03 02:44:11;;;;;;;16.60;7.68;;;6.20;65.50;;;5.36;54.81;98834.38;4978090;28;20485;-83
2021/04/03 02:46:45;;;;;;;14.07;7.22;;;6.40;64.70;;;5.26;54.36;98836.44;4976906;28;20433;-83
2021/04/03 02:49:19;;;;;;;15.70;7.10;;;6.40;63.80;;;5.21;54.92;98833.56;4995019;28;20411;-83
2021/04/03 02:51:49;;;;;;;16.70;7.20;;;6.30;64.70;;;5.32;54.65;98830.50;4994599;28;20634;-82
2021/04/03 02:54:20;;;;;;;20.50;7.80;;;6.40;64.40;;;5.51;54.14;98834.34;4995650;28;20616;-83
2021/04/03 02:56:47;;;;;;;12.77;6.80;;;6.50;64.00;;;5.53;53.59;98842.88;4993866;28;20453;-85
2021/04/03 02:59:20;;;;;;;13.18;6.68;;;6.60;63.90;;;5.48;53.62;98850.50;4994550;28;20517;-84
2021/04/03 03:01:48;;;;;;;16.30;7.40;;;6.60;62.60;;;5.09;54.81;98856.00;4994546;28;20415;-84
2021/04/03 03:04:17;;;;;;;13.13;6.40;;;6.30;63.90;;;5.01;55.23;98854.28;4995319;28;20438;-84
2021/04/03 03:06:46;;;;;;;15.18;6.78;;;6.10;64.80;;;4.75;55.99;98848.63;4994703;28;20443;-83
2021/04/03 03:09:14;;;;;;;15.00;6.68;;;5.90;65.20;;;4.88;55.25;98845.41;4994979;28;20486;-83
2021/04/03 03:11:44;;;;;;;14.23;6.30;;;5.90;65.30;;;4.90;55.03;98848.63;4995495;28;20441;-84
2021/04/03 03:14:12;;;;;;;13.85;6.25;;;6.00;64.60;;;4.91;55.38;98847.66;4998459;28;20731;-83
2021/04/03 03:16:40;;;;;;;12.32;6.40;;;6.00;65.00;;;4.84;55.25;98852.81;4997629;28;20438;-83
2021/04/03 03:19:07;;;;;;;15.80;6.78;;;6.00;64.60;;;4.67;55.87;98852.13;5008758;28;20394;-83
2021/04/03 03:21:35;;;;;;;15.18;6.85;;;5.90;65.40;;;4.76;55.89;98852.88;5000991;28;20429;-84
2021/04/03 03:24:02;;;;;;;44.78;17.80;;;5.90;65.90;;;4.70;55.92;98848.34;4998804;28;20464;-83
2021/04/03 03:26:32;;;;;;;16.00;6.97;;;5.90;65.70;;;4.61;56.20;98854.66;4998789;28;20423;-84
2021/04/03 03:28:59;;;;;;;11.73;6.30;;;5.80;65.70;;;4.61;55.79;98857.25;4998692;28;20406;-84
2021/04/03 03:31:25;;;;;;;11.97;6.80;;;5.70;65.60;;;4.53;55.98;98850.28;4998240;28;20813;-84
2021/04/03 03:33:52;;;;;;;13.48;6.78;;;5.70;66.00;;;4.29;56.60;98848.66;5003715;28;20407;-83
2021/04/03 03:36:18;;;;;;;17.23;6.78;;;5.50;66.20;;;4.46;56.13;98854.59;5000843;28;20414;-83
2021/04/03 03:38:45;;;;;;;14.23;6.32;;;5.60;66.30;;;4.38;56.50;98844.19;5003262;28;20843;-82
2021/04/03 03:41:13;;;;;;;16.70;6.45;;;5.50;66.30;;;4.40;56.70;98847.44;5000186;28;20525;-84
2021/04/03 03:43:40;;;;;;;13.20;6.50;;;5.50;66.50;;;4.41;56.27;98845.63;4999225;28;20415;-83
2021/04/03 03:46:06;;;;;;;16.75;6.55;;;5.60;66.40;;;4.26;56.65;98843.78;4998718;28;20434;-83
2021/04/03 03:48:32;;;;;;;17.27;6.72;;;5.40;66.50;;;4.22;56.90;98857.41;4999927;28;20666;-83
2021/04/03 03:50:58;;;;;;;15.27;7.27;;;5.40;67.00;;;4.18;57.19;98850.88;4998446;28;20770;-84
2021/04/03 03:53:25;;;;;;;16.92;6.40;;;5.30;67.20;;;4.20;57.19;98844.50;4997243;28;20407;-84
2021/04/03 03:55:52;;;;;;;16.55;6.65;;;5.30;67.40;;;4.23;57.35;98848.53;4996777;28;20427;-84
2021/04/03 03:58:19;;;;;;;14.75;7.18;;;5.30;67.50;;;4.28;57.15;98847.03;4996006;28;20419;-84
2021/04/03 04:00:45;;;;;;;13.07;6.22;;;5.40;67.30;;;4.07;57.92;98854.72;4995521;28;20422;-83
2021/04/03 04:03:11;;;;;;;17.20;6.73;;;5.30;67.80;;;4.04;57.79;98843.78;4996477;28;20415;-83
2021/04/03 04:05:37;;;;;;;11.05;6.65;;;5.20;68.00;;;4.08;57.97;98848.47;4978788;28;20426;-83
2021/04/03 04:08:04;;;;;;;16.05;6.60;;;5.20;68.40;;;3.94;58.55;98854.47;4996121;28;20423;-84
2021/04/03 04:10:30;;;;;;;15.85;6.97;;;5.10;68.80;;;3.99;58.42;98848.69;4995999;28;20789;-82
2021/04/03 04:12:57;;;;;;;12.80;6.53;;;5.10;69.10;;;4.00;58.60;98845.91;4996292;28;20414;-84
2021/04/03 04:15:24;;;;;;;16.48;6.70;;;5.20;69.10;;;4.10;58.62;98856.19;4996354;28;20433;-84
2021/04/03 04:17:50;;;;;;;13.65;7.20;;;5.20;68.90;;;4.00;58.72;98855.56;4981292;28;20429;-83
2021/04/03 04:20:16;;;;;;;15.10;7.20;;;5.20;68.90;;;4.08;58.65;98850.28;4983114;28;20720;-84
2021/04/03 04:22:43;;;;;;;16.70;6.75;;;5.20;69.20;;;4.08;58.44;98855.53;5000125;28;20439;-83
2021/04/03 04:25:10;;;;;;;14.02;6.60;;;5.20;68.90;;;4.05;58.46;98854.09;4998545;28;20454;-83
2021/04/03 04:27:36;;;;;;;13.53;6.47;;;5.20;68.80;;;3.91;58.90;98861.88;4999103;28;20805;-84
2021/04/03 04:30:09;;;;;;;12.60;6.78;;;5.10;69.50;;;3.87;59.04;98870.06;4980494;28;20453;-84
2021/04/03 04:32:37;;;;;;;17.17;7.28;;;5.00;69.80;;;3.99;58.97;98873.09;4997390;28;20475;-83
2021/04/03 04:35:05;;;;;;;14.17;6.87;;;5.10;69.70;;;4.02;58.64;98874.56;4998047;28;20424;-81
2021/04/03 04:37:31;;;;;;;12.97;6.50;;;5.20;69.50;;;3.89;59.22;98864.66;4997439;28;20686;-83
2021/04/03 04:39:58;;;;;;;12.10;6.22;;;5.10;69.60;;;3.83;59.29;98868.75;4980003;28;20414;-82
2021/04/03 04:42:24;;;;;;;19.92;7.70;;;5.00;69.80;;;4.02;58.99;98874.56;4997836;28;20410;-82
2021/04/03 04:44:50;;;;;;;15.88;6.70;;;5.10;69.80;;;4.02;58.51;98885.03;4999235;28;20491;-82
2021/04/03 04:47:17;;;;;;;16.08;6.57;;;5.20;69.00;;;3.94;59.09;98883.28;5000570;28;20418;-84
2021/04/03 04:49:44;;;;;;;15.18;6.43;;;5.10;69.30;;;3.99;59.10;98883.56;4999533;28;20421;-83
2021/04/03 04:52:10;;;;;;;12.07;6.30;;;5.10;69.70;;;3.92;58.99;98882.63;4997822;28;20411;-84
2021/04/03 04:54:36;;;;;;;18.67;6.70;;;5.10;69.50;;;3.91;59.32;98891.47;4996352;28;20667;-84
2021/04/03 04:57:03;;;;;;;18.47;7.23;;;5.00;70.00;;;4.06;58.83;98884.50;4996195;28;20437;-84
2021/04/03 04:59:29;;;;;;;12.60;7.00;;;5.20;69.60;;;4.16;58.59;98890.38;4987392;28;20431;-84
2021/04/03 05:01:56;;;;;;;19.63;6.93;;;5.30;69.30;;;4.33;57.70;98887.63;5003882;28;20422;-84
2021/04/03 05:04:22;;;;;;;18.42;7.07;;;5.40;68.50;;;4.14;58.46;98894.13;5000207;28;20462;-85
2021/04/03 05:06:49;;;;;;;13.73;5.90;;;5.30;68.90;;;4.15;58.17;98893.97;4998570;28;20415;-84
2021/04/03 05:09:15;;;;;;;14.18;6.43;;;5.30;69.50;;;3.97;58.91;98890.00;4997471;28;20421;-84
2021/04/03 05:11:41;;;;;;;13.30;6.37;;;5.10;69.20;;;4.15;58.46;98893.16;4998621;28;20414;-84
2021/04/03 05:14:07;;;;;;;16.17;6.38;;;5.30;69.10;;;4.05;58.69;98897.81;5003301;28;20512;-83
2021/04/03 05:16:34;;;;;;;15.95;5.70;;;5.20;69.10;;;4.05;58.46;98890.78;5012378;28;20406;-83
2021/04/03 05:19:01;;;;;;;16.17;6.63;;;5.20;68.80;;;4.10;58.24;98898.09;5012286;28;20415;-85
2021/04/03 05:21:27;;;;;;;16.80;6.77;;;5.20;68.80;;;4.09;58.46;98901.72;4998061;28;20430;-84
2021/04/03 05:23:54;;;;;;;16.63;5.90;;;5.20;68.80;;;4.11;58.69;98900.56;4994821;28;20426;-84
2021/04/03 05:26:20;;;;;;;11.57;5.63;;;5.20;69.20;;;4.07;58.38;98904.50;4979257;28;20432;-83
2021/04/03 05:28:46;;;;;;;10.87;5.63;;;5.20;69.00;;;3.99;58.84;98906.34;4996150;28;20407;-83
2021/04/03 05:31:12;;;;;;;11.73;5.40;;;5.10;69.30;;;3.91;58.82;98909.81;4994217;28;20422;-83
2021/04/03 05:33:39;;;;;;;12.60;5.90;;;5.10;69.60;;;4.02;58.83;98908.63;4996223;28;20829;-83
2021/04/03 05:36:05;;;;;;;18.88;6.10;;;5.10;69.60;;;4.01;58.74;98907.00;4981289;28;20438;-83
2021/04/03 05:38:31;;;;;;;14.15;5.28;;;5.10;69.30;;;3.98;59.05;98920.44;4996840;28;20426;-83
2021/04/03 05:40:58;;;;;;;9.88;4.68;;;5.10;69.50;;;4.00;58.86;98918.44;4978561;28;20728;-83
2021/04/03 05:43:26;;;;;;;17.80;5.88;;;5.10;69.30;;;4.04;59.00;98922.38;4998314;28;20494;-83
2021/04/03 05:45:56;;;;;;;14.95;5.68;;;5.10;69.30;;;4.11;58.53;98925.94;4998095;28;20430;-83
2021/04/03 05:48:23;;;;;;;12.52;5.50;;;5.30;69.30;;;4.24;58.18;98926.19;5001416;28;20421;-84
2021/04/03 05:50:53;;;;;;;16.63;6.35;;;5.40;68.90;;;4.28;57.96;98925.66;5002002;28;20425;-84
2021/04/03 05:53:20;;;;;;;16.10;5.75;;;5.40;68.70;;;4.36;57.84;98935.28;4996298;28;20503;-86
2021/04/03 05:55:46;;;;;;;11.48;4.85;;;5.50;68.40;;;4.25;58.14;98935.69;4996469;28;20483;-86
2021/04/03 05:58:13;;;;;;;10.60;5.03;;;5.40;68.10;;;4.21;58.41;98942.28;4979556;28;20433;-86
2021/04/03 06:00:39;;;;;;;12.05;5.75;;;5.30;68.90;;;4.24;58.20;98937.50;4979458;28;20457;-86
2021/04/03 06:03:05;;;;;;;11.02;5.60;;;5.40;68.90;;;4.43;57.82;98949.34;4979196;28;20537;-86
2021/04/03 06:05:32;;;;;;;13.07;5.60;;;5.50;68.60;;;4.55;57.72;98952.38;4994962;28;20541;-84
2021/04/03 06:07:58;;;;;;;20.38;6.70;;;5.60;68.50;;;4.52;57.74;98952.72;4994718;28;20417;-86
2021/04/03 06:10:24;;;;;;;9.32;5.30;;;5.60;68.50;;;4.59;57.69;98946.59;4994518;28;20758;-89
2021/04/03 06:12:50;;;;;;;11.73;5.20;;;5.60;68.30;;;4.84;56.91;98943.81;4995142;28;20411;-86
2021/04/03 06:15:35;;;;;;;13.35;4.45;;;5.90;67.60;;;4.48;57.57;98956.69;4997660;28;20410;-87
2021/04/03 06:18:08;;;;;;;12.55;6.05;;;5.80;67.30;;;4.59;57.73;98958.91;4994324;28;20414;-86
2021/04/03 06:20:36;;;;;;;11.43;5.45;;;5.70;68.20;;;4.70;57.15;98955.06;4995693;28;20609;-87
2021/04/03 06:23:04;;;;;;;14.70;5.50;;;5.80;67.50;;;4.66;57.31;98952.78;4994293;28;20658;-86
2021/04/03 06:25:30;;;;;;;13.52;5.35;;;5.80;67.70;;;4.57;57.72;98956.47;4994790;28;20454;-86
2021/04/03 06:28:05;;;;;;;11.05;5.68;;;5.70;68.00;;;4.66;57.38;98960.66;4978552;28;20433;-87
2021/04/03 06:30:36;;;;;;;13.95;5.43;;;5.80;67.90;;;4.62;57.44;98958.56;4995173;28;20462;-87
2021/04/03 06:33:17;;;;;;;10.98;5.57;;;5.70;67.90;;;4.75;56.77;98955.34;4998146;28;20488;-88
2021/04/03 06:35:44;;;;;;;13.82;5.70;;;5.90;67.20;;;4.86;56.80;98963.63;4989117;28;20819;-89
2021/04/03 06:38:21;;;;;;;14.32;5.68;;;6.00;67.10;;;5.02;56.23;98971.38;5010491;28;20410;-89
2021/04/03 06:40:48;;;;;;;16.60;5.33;;;6.10;66.60;;;4.91;56.75;98965.72;5009888;28;20481;-88
2021/04/03 06:43:16;;;;;;;13.63;5.82;;;6.00;67.10;;;4.93;56.66;98971.63;4982147;28;20427;-87
2021/04/03 06:45:46;;;;;;;11.18;5.45;;;6.10;66.90;;;4.84;56.53;98975.28;4998566;28;20437;-88
2021/04/03 06:48:15;;;;;;;11.07;5.90;;;5.90;67.30;;;5.01;56.41;98967.13;4999093;28;20402;-89
2021/04/03 06:50:45;;;;;;;14.93;8.27;;;6.10;67.00;;;5.03;56.17;98973.03;4981789;28;20450;-90
2021/04/03 06:53:13;;;;;;;12.30;5.00;;;6.20;66.30;;;4.81;57.00;98965.94;4981627;28;20425;-89
2021/04/03 06:55:44;;;;;;;13.00;5.50;;;6.00;66.70;;;4.54;57.91;98964.66;4998483;28;20414;-88
2021/04/03 06:58:12;;;;;;;16.20;5.72;;;5.70;68.30;;;4.86;57.46;98968.06;4999639;28;20415;-83
2021/04/03 07:00:40;;;;;;;26.70;6.45;;;5.90;68.20;;;4.88;57.11;98969.53;5002302;28;20483;-86
2021/04/03 07:03:16;;;;;;;11.25;4.50;;;6.00;67.70;;;4.56;58.15;98970.56;5013942;28;20406;-89
2021/04/03 07:05:44;;;;;;;18.15;5.78;;;5.70;68.30;;;4.87;57.76;98972.31;5001741;28;20538;-89
2021/04/03 07:08:10;;;;;;;20.77;6.20;;;5.90;68.40;;;5.23;56.34;98978.59;5002769;28;20446;-87
2021/04/03 07:10:40;;;;;;;13.18;5.70;;;6.20;67.30;;;5.17;56.52;98978.47;5001726;28;20418;-87
2021/04/03 07:13:11;;;;;;;15.30;5.50;;;6.20;67.00;;;5.39;55.57;98975.81;4999944;28;20422;-86
2021/04/03 07:15:37;;;;;;;11.13;5.35;;;6.40;65.90;;;5.66;55.01;98982.25;5001049;28;20633;-90
2021/04/03 07:18:08;;;;;;;9.32;4.82;;;6.60;65.50;;;5.74;54.40;98987.44;4983387;28;20437;-88
2021/04/03 07:20:35;;;;;;;11.32;5.05;;;6.80;64.40;;;5.86;54.39;98987.81;4982180;28;20868;-88
2021/04/03 07:23:04;;;;;;;11.20;5.40;;;6.90;64.30;;;5.99;53.90;98989.81;5001522;28;20558;-89
2021/04/03 07:25:33;;;;;;;14.15;4.97;;;7.00;63.80;;;6.04;53.78;98988.25;5001333;28;20426;-86
2021/04/03 07:28:00;;;;;;;9.95;4.78;;;7.00;63.50;;;6.06;53.49;98993.34;4999692;28;20418;-85
2021/04/03 07:30:43;;;;;;;10.93;5.00;;;7.10;63.20;;;6.13;53.27;98997.69;5000817;28;20499;-84
2021/04/03 07:33:11;;;;;;;10.95;4.50;;;7.20;64.10;;;5.97;53.50;98991.81;4984059;28;20418;-85
2021/04/03 07:35:43;;;;;;;8.40;4.63;;;7.20;62.70;;;5.50;55.00;99003.44;5000658;28;20415;-85
2021/04/03 07:38:14;;;;;;;11.82;5.15;;;6.70;64.10;;;5.83;54.39;99002.13;5002561;28;20705;-85
2021/04/03 07:40:44;;;;;;;14.32;5.10;;;6.80;64.70;;;6.18;53.07;99011.09;5001060;28;20812;-86
2021/04/03 07:43:35;;;;;;;11.07;5.38;;;7.10;63.10;;;6.63;51.75;99001.31;4983371;28;20426;-85
2021/04/03 07:46:05;;;;;;;8.38;2.85;;;7.50;61.70;;;5.41;53.40;99005.31;4999941;28;20434;-86
2021/04/03 07:48:47;;;;;;;13.70;4.50;;;6.90;61.80;;;5.60;54.29;99014.50;5001070;28;20419;-85
2021/04/03 07:51:16;;;;;;;12.55;4.57;;;6.50;64.40;;;6.02;53.06;98999.94;5004896;28;20445;-86
2021/04/03 07:53:44;;;;;;;12.32;4.40;;;7.00;63.30;;;6.25;52.21;99003.28;4989044;28;20685;-86
2021/04/03 07:56:12;;;;;;;15.02;4.70;;;7.20;61.70;;;6.34;51.74;99014.53;5001895;28;20426;-85
2021/04/03 07:58:47;;;;;;;14.18;6.90;;;7.40;60.80;;;6.46;51.69;99007.81;5008009;28;20411;-85
2021/04/03 08:01:15;;;;;;;11.40;5.20;;;7.50;60.90;;;6.23;51.65;99015.81;5008536;28;20415;-85
2021/04/03 08:03:52;;;;;;;13.13;4.87;;;7.30;60.50;;;6.21;51.90;99021.25;5009791;28;20425;-86
2021/04/03 08:06:19;;;;;;;14.90;4.68;;;7.30;61.10;;;6.14;52.50;99027.44;5003785;28;20473;-87
2021/04/03 08:08:45;;;;;;;10.55;4.90;;;7.20;61.20;;;6.35;51.77;99024.03;5000559;28;20429;-86
2021/04/03 08:11:13;;;;;;;15.52;4.70;;;7.30;61.10;;;6.61;50.79;99016.47;5001639;28;20483;-85
2021/04/03 08:13:42;;;;;;;8.95;4.00;;;7.60;60.10;;;6.60;50.22;99023.56;5001672;28;20415;-84
2021/04/03 08:16:10;;;;;;;13.15;4.10;;;7.60;59.10;;;6.67;50.27;99028.06;5000899;28;20433;-87
2021/04/03 08:18:39;;;;;;;12.80;4.00;;;7.70;59.10;;;6.75;49.92;99026.16;4984331;28;20439;-85
2021/04/03 08:21:08;;;;;;;12.47;4.57;;;7.70;58.90;;;6.61;49.92;99027.78;5001014;28;20518;-86
2021/04/03 08:23:37;;;;;;;8.85;3.97;;;7.60;58.80;;;6.63;49.67;99034.69;4983225;28;20418;-86
2021/04/03 08:26:05;;;;;;;11.52;3.80;;;7.60;58.70;;;6.77;49.71;99029.38;4983711;28;20514;-84
2021/04/03 08:28:32;;;;;;;13.90;4.13;;;7.70;58.60;;;6.84;49.67;99034.75;5002366;28;20414;-85
2021/04/03 08:31:24;;;;;;;13.52;4.45;;;7.80;58.70;;;6.85;49.62;99041.59;4985126;28;20445;-85
2021/04/03 08:33:53;;;;;;;8.45;4.07;;;7.80;58.60;;;6.89;49.70;99040.25;5000761;28;20418;-85
2021/04/03 08:36:24;;;;;;;10.20;3.92;;;7.90;58.80;;;6.73;49.74;99045.75;5000043;28;20418;-86
2021/04/03 08:38:52;;;;;;;9.45;3.70;;;7.80;58.40;;;6.68;49.60;99050.75;5003423;28;20411;-84
2021/04/03 08:41:20;;;;;;;11.13;4.25;;;7.70;58.20;;;6.59;50.06;99058.75;5002062;28;20490;-85
2021/04/03 08:43:47;;;;;;;11.82;4.18;;;7.60;58.50;;;6.56;49.94;99051.22;4984881;28;20426;-85
2021/04/03 08:46:14;;;;;;;10.77;4.10;;;7.60;59.30;;;6.46;50.06;99060.41;5001216;28;20578;-86
2021/04/03 08:48:43;;;;;;;14.82;5.20;;;7.50;58.70;;;6.46;50.34;99065.69;5003806;28;20415;-84
2021/04/03 08:55:09;;;;;;;8.63;3.92;;;7.60;59.10;;;7.05;49.50;99062.91;5045116;28;20410;-87
2021/04/03 08:57:35;;;;;;;11.45;3.63;;;8.00;58.70;;;7.28;48.35;99056.44;5036395;28;20417;-85
2021/04/03 09:00:03;;;;;;;13.25;4.05;;;8.20;57.40;;;7.16;48.33;99057.94;4987921;28;20502;-82
2021/04/03 09:02:32;;;;;;;9.50;3.72;;;8.20;56.90;;;6.96;48.84;99068.28;4984994;28;20746;-82
2021/04/03 09:05:02;;;;;;;11.27;3.55;;;8.10;57.40;;;5.80;51.90;99072.59;5000165;28;20426;-85
2021/04/03 09:07:35;;;;;;;10.73;4.30;;;7.00;60.20;;;5.94;52.40;99071.81;5002798;28;20411;-86
2021/04/03 09:10:08;;;;;;;10.35;3.97;;;6.90;61.60;;;6.26;51.28;99081.19;5001075;28;20502;-85
2021/04/03 09:12:35;;;;;;;10.50;4.10;;;7.30;60.50;;;6.71;50.34;99077.50;4999213;28;20422;-87
2021/04/03 09:15:02;;;;;;;14.52;4.55;;;7.60;59.90;;;6.85;49.72;99084.53;5001308;28;20430;-85
2021/04/03 09:17:28;;;;;;;11.02;4.57;;;7.80;58.90;;;6.75;50.15;99091.94;5002803;28;20414;-88
2021/04/03 09:20:07;;;;;;;14.95;4.47;;;7.80;58.70;;;6.76;50.14;99077.78;5003613;28;20410;-85
2021/04/03 09:22:37;;;;;;;8.88;3.55;;;7.60;59.60;;;6.45;50.35;99082.44;5001709;28;20418;-85
2021/04/03 09:25:08;;;;;;;10.48;3.97;;;7.60;58.70;;;6.34;50.46;99091.59;5004969;28;20422;-88
2021/04/03 09:27:35;;;;;;;12.47;4.33;;;7.40;59.20;;;6.23;51.05;99078.94;4988459;28;20430;-88
2021/04/03 09:30:07;;;;;;;10.57;4.22;;;7.30;60.10;;;6.47;50.48;99075.16;5002138;28;20475;-86
2021/04/03 09:32:42;;;;;;;13.35;4.07;;;7.40;60.20;;;6.98;48.14;99070.72;4998831;28;20414;-87
2021/04/03 09:35:10;;;;;;;10.80;3.80;;;7.90;58.00;;;7.07;47.93;99074.84;4998404;28;20418;-89
2021/04/03 09:37:37;;;;;;;11.82;3.75;;;8.10;56.60;;;7.54;45.99;99076.91;4980545;28;20435;-86
2021/04/03 09:40:07;;;;;;;10.98;4.07;;;8.50;55.00;;;7.57;46.12;99073.91;4980740;28;20500;-87
2021/04/03 09:42:36;;;;;;;12.60;4.37;;;8.60;54.80;;;7.22;47.00;99069.53;4998674;28;20702;-86
2021/04/03 09:45:08;;;;;;;12.10;4.13;;;8.30;55.70;;;7.44;46.61;99073.00;5000208;28;20430;-87
2021/04/03 09:47:34;;;;;;;9.47;3.93;;;8.40;55.50;;;7.02;47.92;99074.59;5004686;28;20471;-87
2021/04/03 09:50:00;;;;;;;10.13;3.97;;;8.00;56.90;;;7.45;46.79;99070.16;5007318;28;20414;-88
2021/04/03 09:52:26;;;;;;;9.23;3.95;;;8.30;56.00;;;7.77;45.89;99068.78;5006066;28;20433;-89
2021/04/03 09:54:53;;;;;;;12.45;6.88;;;8.70;54.90;;;7.91;45.33;99070.50;5008132;28;20411;-88
2021/04/03 09:57:20;;;;;;;8.80;3.17;;;8.80;54.20;;;6.67;47.74;99084.16;5011993;28;20483;-87
2021/04/03 09:59:47;;;;;;;9.70;3.88;;;7.90;55.40;;;7.10;47.32;99069.22;5011964;28;20422;-87
2021/04/03 10:02:14;;;;;;;9.85;3.67;;;8.10;56.10;;;7.37;46.23;99070.28;4988357;28;20426;-89
2021/04/03 10:04:41;;;;;;;7.70;3.78;;;8.20;55.30;;;7.77;45.04;99072.25;4999879;28;20752;-88
2021/04/03 10:07:07;;;;;;;14.13;4.38;;;8.70;53.80;;;8.08;44.49;99069.22;4981928;28;20434;-89
2021/04/03 10:09:33;;;;;;;9.38;3.85;;;9.00;53.10;;;8.00;44.66;99077.28;4997220;28;20415;-89
2021/04/03 10:11:59;;;;;;;14.30;4.30;;;9.00;52.70;;;8.27;44.28;99074.81;4996329;28;20470;-87
2021/04/03 10:14:26;;;;;;;11.88;4.18;;;9.20;53.00;;;8.59;43.82;99079.44;4997735;28;20427;-88
2021/04/03 10:16:53;;;;;;;12.43;4.00;;;9.40;52.80;;;8.80;43.08;99075.88;4996517;28;20431;-89
2021/04/03 10:19:19;;;;;;;9.75;3.88;;;9.70;51.80;;;9.16;42.72;99071.13;4979433;28;20833;-89
2021/04/03 10:21:46;;;;;;;11.05;4.05;;;9.90;51.50;;;8.80;43.22;99070.59;4984542;28;21174;-89
2021/04/03 10:24:12;;;;;;;10.10;3.93;;;9.80;51.30;;;8.29;44.68;99072.78;5001779;28;20530;-88
2021/04/03 10:26:39;;;;;;;8.10;3.40;;;9.30;52.90;;;7.05;46.73;99082.16;5003864;28;20511;-88
2021/04/03 10:29:05;;;;;;;15.40;4.00;;;8.30;54.10;;;7.40;46.11;99083.09;4983435;28;20427;-89
2021/04/03 10:31:31;;;;;;;10.32;3.83;;;8.30;54.90;;;7.57;45.66;99071.28;5000170;28;20407;-88
2021/04/03 10:33:59;;;;;;;6.90;3.65;;;8.50;54.30;;;7.27;46.50;99081.16;4982842;28;20440;-87
2021/04/03 10:36:25;;;;;;;10.45;3.88;;;8.30;54.90;;;7.22;46.75;99080.88;5000480;28;20824;-86
2021/04/03 10:38:51;;;;;;;8.68;4.03;;;8.30;55.00;;;7.68;45.95;99077.84;4998681;28;20765;-88